createdAt,value
2018-11-23T00:02:25.424Z,19.82
2018-11-23T00:04:58.442Z,22.17
2018-11-23T00:07:29.728Z,25.43
2018-11-23T00:10:00.700Z,18.62
2018-11-23T00:12:32.222Z,19.60
2018-11-23T00:15:03.576Z,22.02
2018-11-23T00:17:34.056Z,23.05
2018-11-23T00:20:04.551Z,21.73
2018-11-23T00:22:35.054Z,23.47
2018-11-23T00:25:05.688Z,23.25
2018-11-23T00:27:36.345Z,19.73
2018-11-23T00:30:08.609Z,24.45
2018-11-23T00:32:40.106Z,24.95
2018-11-23T00:35:12.821Z,21.12
2018-11-23T00:37:44.022Z,22.27
2018-11-23T00:40:23.868Z,33.87
2018-11-23T00:42:55.297Z,24.80
2018-11-23T00:45:24.839Z,21.23
2018-11-23T00:47:57.078Z,25.02
2018-11-23T00:50:28.426Z,22.93
2018-11-23T00:52:59.703Z,23.15
2018-11-23T00:55:30.864Z,22.73
2018-11-23T00:58:01.355Z,24.25
2018-11-23T01:00:34.615Z,21.02
2018-11-23T01:03:05.883Z,22.90
2018-11-23T01:05:36.588Z,21.40
2018-11-23T01:08:07.567Z,21.40
2018-11-23T01:10:38.580Z,22.52
2018-11-23T01:13:09.062Z,29.15
2018-11-23T01:15:50.996Z,20.80
2018-11-23T01:18:22.446Z,20.17
2018-11-23T01:20:53.863Z,20.55
2018-11-23T01:23:25.378Z,23.67
2018-11-23T01:25:55.942Z,25.52
2018-11-23T01:28:26.497Z,19.70
2018-11-23T01:30:56.865Z,25.67
2018-11-23T01:33:27.390Z,20.87
2018-11-23T01:35:57.643Z,23.83
2018-11-23T01:38:28.447Z,22.27
2018-11-23T01:40:58.691Z,22.30
2018-11-23T01:43:29.218Z,23.35
2018-11-23T01:45:59.913Z,23.27
2018-11-23T01:48:29.366Z,21.87
2018-11-23T01:51:00.585Z,23.80
2018-11-23T01:53:31.376Z,22.80
2018-11-23T01:56:01.741Z,20.37
2018-11-23T01:58:32.195Z,26.70
2018-11-23T02:01:01.859Z,19.70
2018-11-23T02:03:33.271Z,21.57
2018-11-23T02:06:03.693Z,23.67
2018-11-23T02:08:34.222Z,20.20
2018-11-23T02:11:04.657Z,19.63
2018-11-23T02:13:35.183Z,19.90
2018-11-23T02:16:05.513Z,23.00
2018-11-23T02:18:37.296Z,22.37
2018-11-23T02:21:09.404Z,24.13
2018-11-23T02:23:41.269Z,24.80
2018-11-23T02:26:12.842Z,23.87
2018-11-23T02:28:43.017Z,19.73
2018-11-23T02:31:24.888Z,20.80
2018-11-23T02:34:03.371Z,21.30
2018-11-23T02:36:33.806Z,25.93
2018-11-23T02:39:05.474Z,21.87
2018-11-23T02:41:37.685Z,22.98
2018-11-23T02:44:11.536Z,21.50
2018-11-23T02:46:42.711Z,19.17
2018-11-23T02:49:13.412Z,20.92
2018-11-23T02:51:43.688Z,22.97
2018-11-23T02:54:14.382Z,21.30
2018-11-23T02:56:47.705Z,22.82
2018-11-23T02:59:18.658Z,22.60
2018-11-23T03:01:49.628Z,21.90
2018-11-23T03:04:20.186Z,20.15
2018-11-23T03:06:50.962Z,21.57
2018-11-23T03:09:21.285Z,22.10
2018-11-23T03:11:51.938Z,22.20
2018-11-23T03:14:22.436Z,22.17
2018-11-23T03:16:53.857Z,23.77
2018-11-23T03:19:24.442Z,20.70
2018-11-23T03:21:55.656Z,20.48
2018-11-23T03:24:26.307Z,23.17
2018-11-23T03:26:57.816Z,22.75
2018-11-23T03:29:28.143Z,25.20
2018-11-23T03:31:59.297Z,25.37
2018-11-23T03:34:29.413Z,25.87
2018-11-23T03:37:00.909Z,26.50
2018-11-23T03:39:34.181Z,36.37
2018-11-23T03:42:02.625Z,25.97
2018-11-23T03:44:33.106Z,25.62
2018-11-23T03:47:18.697Z,22.15
2018-11-23T03:49:49.533Z,26.60
2018-11-23T03:52:19.721Z,25.63
2018-11-23T03:55:02.323Z,24.12
2018-11-23T03:57:40.164Z,22.58
2018-11-23T04:00:17.423Z,22.02
2018-11-23T04:02:48.697Z,22.13
2018-11-23T04:05:30.530Z,22.23
2018-11-23T04:08:03.138Z,18.00
2018-11-23T04:10:34.696Z,29.42
2018-11-23T04:13:14.115Z,26.23
2018-11-23T04:16:00.651Z,19.87
2018-11-23T04:18:31.510Z,20.57
2018-11-23T04:21:13.129Z,23.52
2018-11-23T04:23:44.647Z,19.17
2018-11-23T04:26:24.353Z,29.35
2018-11-23T04:28:51.650Z,22.65
2018-11-23T04:31:33.245Z,20.23
2018-11-23T04:34:03.720Z,19.80
2018-11-23T04:36:37.229Z,24.90
2018-11-23T04:39:20.821Z,29.17
2018-11-23T04:42:05.157Z,16.20
2018-11-23T04:44:35.765Z,22.40
2018-11-23T04:47:07.011Z,26.23
2018-11-23T04:49:37.951Z,23.55
2018-11-23T04:52:09.388Z,20.00
2018-11-23T04:54:40.632Z,19.75
2018-11-23T04:57:11.401Z,20.30
2018-11-23T04:59:42.634Z,21.20
2018-11-23T05:02:17.769Z,20.20
2018-11-23T05:07:54.665Z,17.42
2018-11-23T05:10:26.058Z,20.50
2018-11-23T05:12:56.696Z,20.65
2018-11-23T05:15:28.403Z,19.27
2018-11-23T05:18:07.672Z,18.23
2018-11-23T05:20:45.751Z,21.00
2018-11-23T05:23:17.814Z,21.40
2018-11-23T05:26:00.900Z,18.50
2018-11-23T05:28:36.805Z,19.03
2018-11-23T05:31:07.835Z,19.50
2018-11-23T05:33:38.773Z,17.70
2018-11-23T05:36:09.680Z,20.48
2018-11-23T05:38:40.633Z,18.20
2018-11-23T05:41:10.495Z,18.67
2018-11-23T05:43:40.409Z,15.87
2018-11-23T05:46:11.393Z,16.73
2018-11-23T05:48:41.228Z,17.05
2018-11-23T05:51:12.165Z,17.87
2018-11-23T05:53:42.059Z,16.35
2018-11-23T05:56:13.038Z,16.67
2018-11-23T05:58:43.990Z,15.50
2018-11-23T06:01:13.795Z,17.83
2018-11-23T06:03:44.840Z,20.43
2018-11-23T06:06:18.295Z,16.83
2018-11-23T06:09:02.478Z,18.17
2018-11-23T06:11:57.054Z,19.67
2018-11-23T06:14:59.254Z,18.10
2018-11-23T06:17:30.154Z,17.53
2018-11-23T06:20:02.077Z,19.40
2018-11-23T06:22:32.869Z,18.23
2018-11-23T06:25:08.162Z,17.47
2018-11-23T06:27:45.482Z,16.50
2018-11-23T06:30:21.944Z,18.57
2018-11-23T06:33:15.852Z,18.47
2018-11-23T06:35:47.076Z,16.73
2018-11-23T06:38:18.046Z,17.27
2018-11-23T06:40:48.676Z,16.27
2018-11-23T06:43:20.230Z,19.92
2018-11-23T06:45:49.807Z,17.63
2018-11-23T06:48:20.805Z,19.10
2018-11-23T06:54:30.292Z,15.87
2018-11-23T06:57:02.120Z,18.00
2018-11-23T06:59:43.911Z,18.67
2018-11-23T07:02:14.834Z,18.30
2018-11-23T07:04:45.511Z,18.07
2018-11-23T07:07:14.896Z,19.13
2018-11-23T07:09:45.806Z,16.55
2018-11-23T07:12:16.679Z,19.97
2018-11-23T07:14:47.649Z,17.47
2018-11-23T07:17:18.247Z,18.77
2018-11-23T07:19:49.161Z,20.80
2018-11-23T07:22:20.285Z,19.03
2018-11-23T07:24:57.315Z,20.37
2018-11-23T07:27:39.210Z,18.15
2018-11-23T07:30:31.485Z,18.67
2018-11-23T07:33:02.249Z,17.50
2018-11-23T07:35:32.315Z,18.10
2018-11-23T07:38:02.213Z,18.30
2018-11-23T07:40:46.249Z,17.50
2018-11-23T07:43:17.309Z,16.10
2018-11-23T07:45:48.144Z,17.53
2018-11-23T07:48:18.734Z,17.47
2018-11-23T07:50:49.918Z,18.23
2018-11-23T07:53:19.802Z,15.93
2018-11-23T07:55:50.709Z,16.10
2018-11-23T07:58:21.364Z,17.27
2018-11-23T08:00:52.347Z,18.60
2018-11-23T08:03:23.353Z,18.30
2018-11-23T08:05:54.345Z,19.17
2018-11-23T08:08:25.298Z,18.27
2018-11-23T08:10:55.068Z,18.00
2018-11-23T08:13:26.658Z,18.60
2018-11-23T08:15:56.971Z,19.97
2018-11-23T08:18:50.112Z,18.20
2018-11-23T08:21:21.662Z,18.07
2018-11-23T08:24:06.890Z,18.20
2018-11-23T08:26:37.079Z,21.30
2018-11-23T08:29:07.717Z,17.73
2018-11-23T08:31:37.886Z,16.52
2018-11-23T08:34:07.790Z,21.53
2018-11-23T08:36:37.673Z,20.73
2018-11-23T08:39:10.329Z,19.73
2018-11-23T08:41:41.501Z,19.00
2018-11-23T08:44:12.225Z,16.25
2018-11-23T08:46:43.044Z,18.90
2018-11-23T08:49:13.909Z,16.35
2018-11-23T08:51:44.084Z,16.20
2018-11-23T08:54:14.896Z,15.70
2018-11-23T08:56:45.591Z,16.63
2018-11-23T08:59:16.767Z,14.93
2018-11-23T09:01:47.468Z,14.03
2018-11-23T09:04:18.568Z,15.37
2018-11-23T09:06:49.472Z,13.40
2018-11-23T09:09:20.086Z,15.00
2018-11-23T09:11:50.242Z,14.15
2018-11-23T09:14:21.495Z,12.80
2018-11-23T09:16:51.878Z,12.03
2018-11-23T09:19:22.712Z,13.33
2018-11-23T09:21:53.566Z,14.00
2018-11-23T09:24:24.770Z,15.27
2018-11-23T09:26:55.653Z,15.33
2018-11-23T09:29:26.483Z,14.40
2018-11-23T09:31:57.409Z,14.27
2018-11-23T09:34:28.370Z,12.53
2018-11-23T09:36:59.253Z,11.47
2018-11-23T09:42:16.845Z,12.90
2018-11-23T09:44:47.129Z,12.67
2018-11-23T09:47:18.408Z,14.40
2018-11-23T09:49:48.637Z,13.47
2018-11-23T09:52:18.772Z,13.00
2018-11-23T09:54:49.695Z,12.00
2018-11-23T09:57:20.289Z,11.53
2018-11-23T09:59:50.494Z,11.53
2018-11-23T10:02:21.381Z,13.00
2018-11-23T10:04:51.305Z,12.47
2018-11-23T10:07:22.155Z,12.60
2018-11-23T10:09:52.776Z,11.97
2018-11-23T10:12:22.927Z,11.60
2018-11-23T10:14:53.850Z,12.07
2018-11-23T10:17:25.099Z,10.97
2018-11-23T10:19:58.133Z,12.33
2018-11-23T10:22:28.498Z,10.87
2018-11-23T10:24:59.541Z,12.43
2018-11-23T10:27:29.354Z,13.37
2018-11-23T10:30:01.264Z,11.20
2018-11-23T10:32:34.951Z,11.67
2018-11-23T10:35:06.140Z,11.70
2018-11-23T10:37:36.715Z,11.30
2018-11-23T10:40:09.806Z,11.67
2018-11-23T10:42:41.036Z,11.57
2018-11-23T10:45:16.532Z,11.03
2018-11-23T10:47:48.431Z,13.90
2018-11-23T10:50:23.657Z,9.77
2018-11-23T10:52:54.561Z,11.90
2018-11-23T10:55:26.467Z,13.00
2018-11-23T10:57:56.383Z,12.03
2018-11-23T11:00:31.300Z,9.73
2018-11-23T11:03:02.984Z,12.77
2018-11-23T11:07:45.435Z,11.57
2018-11-23T11:10:16.539Z,11.70
2018-11-23T11:12:46.625Z,13.57
2018-11-23T11:15:17.517Z,12.30
2018-11-23T11:17:48.428Z,12.40
2018-11-23T11:20:18.436Z,11.53
2018-11-23T11:22:50.995Z,10.80
2018-11-23T11:25:21.576Z,11.97
2018-11-23T11:27:52.705Z,12.30
2018-11-23T11:30:22.982Z,12.80
2018-11-23T11:32:52.856Z,12.63
2018-11-23T11:35:23.593Z,13.13
2018-11-23T11:37:53.656Z,12.97
2018-11-23T11:40:24.478Z,12.40
2018-11-23T11:42:54.524Z,13.57
2018-11-23T11:45:24.346Z,13.23
2018-11-23T11:47:55.052Z,13.13
2018-11-23T11:50:25.154Z,13.00
2018-11-23T11:52:56.397Z,11.50
2018-11-23T11:55:27.364Z,13.63
2018-11-23T11:57:58.608Z,14.07
2018-11-23T12:00:29.542Z,14.03
2018-11-23T12:03:07.800Z,13.53
2018-11-23T12:05:37.699Z,13.83
2018-11-23T12:08:08.595Z,15.60
2018-11-23T12:10:38.497Z,15.73
2018-11-23T12:13:19.978Z,16.17
2018-11-23T12:15:50.261Z,16.60
2018-11-23T12:18:20.319Z,16.00
2018-11-23T12:20:49.921Z,15.30
2018-11-23T12:23:21.107Z,14.50
2018-11-23T12:25:51.026Z,16.67
2018-11-23T12:28:21.635Z,16.00
2018-11-23T12:30:51.032Z,15.20
2018-11-23T12:33:20.668Z,15.33
2018-11-23T12:35:50.576Z,16.50
2018-11-23T12:38:20.439Z,15.80
2018-11-23T12:40:49.084Z,15.93
2018-11-23T12:43:19.080Z,15.60
2018-11-23T12:45:49.119Z,16.73
2018-11-23T12:48:19.024Z,15.47
2018-11-23T12:50:50.691Z,16.17
2018-11-23T12:53:20.826Z,14.77
2018-11-23T12:55:50.712Z,15.20
2018-11-23T12:58:20.615Z,15.10
2018-11-23T13:00:50.521Z,16.07
2018-11-23T13:03:20.426Z,15.57
2018-11-23T13:05:51.150Z,15.40
2018-11-23T13:08:25.001Z,14.70
2018-11-23T13:11:00.037Z,14.30
2018-11-23T13:13:40.227Z,16.80
2018-11-23T13:16:10.773Z,17.77
2018-11-23T13:18:41.066Z,16.50
2018-11-23T13:21:11.934Z,14.73
2018-11-23T13:23:42.575Z,16.97
2018-11-23T13:26:13.770Z,16.00
2018-11-23T13:28:44.730Z,14.73
2018-11-23T13:31:15.982Z,15.57
2018-11-23T13:33:45.437Z,14.70
2018-11-23T13:36:16.052Z,15.50
2018-11-23T13:38:46.225Z,14.60
2018-11-23T13:41:16.850Z,14.93
2018-11-23T13:43:47.640Z,14.53
2018-11-23T13:46:18.653Z,15.80
2018-11-23T13:48:48.853Z,16.00
2018-11-23T13:51:22.751Z,15.87
2018-11-23T13:53:54.774Z,15.80
2018-11-23T13:59:53.235Z,13.63
2018-11-23T14:02:24.125Z,14.50
2018-11-23T14:04:58.627Z,11.93
2018-11-23T14:07:29.656Z,12.87
2018-11-23T14:10:00.589Z,12.10
2018-11-23T14:12:30.785Z,13.30
2018-11-23T14:15:01.694Z,13.47
2018-11-23T14:17:32.523Z,13.50
2018-11-23T14:20:03.397Z,14.60
2018-11-23T14:22:34.398Z,13.83
2018-11-23T14:25:05.183Z,13.83
2018-11-23T14:27:35.925Z,12.43
2018-11-23T14:30:09.864Z,13.80
2018-11-23T14:32:41.019Z,14.10
2018-11-23T14:35:13.866Z,13.77
2018-11-23T14:37:46.503Z,13.20
2018-11-23T14:40:17.758Z,14.27
2018-11-23T14:42:48.760Z,12.53
2018-11-23T14:45:23.411Z,12.40
2018-11-23T14:47:54.628Z,13.57
2018-11-23T14:50:26.601Z,15.77
2018-11-23T14:52:57.778Z,16.70
2018-11-23T14:55:28.384Z,14.77
2018-11-23T14:57:59.228Z,15.53
2018-11-23T15:00:37.929Z,15.53
2018-11-23T15:03:10.803Z,16.80
2018-11-23T15:05:42.052Z,15.57
2018-11-23T15:08:13.021Z,15.73
2018-11-23T15:10:43.644Z,14.90
2018-11-23T15:13:14.851Z,15.20
2018-11-23T15:15:45.468Z,15.30
2018-11-23T15:18:16.369Z,13.07
2018-11-23T15:20:47.598Z,13.20
2018-11-23T15:23:19.510Z,16.97
2018-11-23T15:25:50.206Z,16.17
2018-11-23T15:28:20.292Z,16.93
2018-11-23T15:30:51.193Z,15.83
2018-11-23T15:33:21.975Z,15.40
2018-11-23T15:35:52.849Z,15.80
2018-11-23T15:38:25.875Z,15.68
2018-11-23T15:40:56.753Z,18.10
2018-11-23T15:43:27.591Z,16.73
2018-11-23T15:45:57.639Z,16.40
2018-11-23T15:48:28.340Z,16.73
2018-11-23T15:51:02.637Z,14.90
2018-11-23T15:53:33.356Z,17.33
2018-11-23T15:56:04.326Z,16.70
2018-11-23T15:58:35.182Z,17.87
2018-11-23T16:01:05.825Z,17.03
2018-11-23T16:03:37.064Z,19.77
2018-11-23T16:06:07.930Z,15.47
2018-11-23T16:08:39.148Z,17.00
2018-11-23T16:11:09.580Z,15.53
2018-11-23T16:13:40.392Z,17.70
2018-11-23T16:16:11.428Z,16.90
2018-11-23T16:18:42.482Z,15.20
2018-11-23T16:21:13.349Z,17.20
2018-11-23T16:23:44.177Z,15.80
2018-11-23T16:26:15.429Z,15.63
2018-11-23T16:28:46.079Z,16.30
2018-11-23T16:31:16.998Z,16.67
2018-11-23T16:33:47.736Z,17.10
2018-11-23T16:36:18.850Z,16.50
2018-11-23T16:38:50.105Z,17.07
2018-11-23T16:41:20.545Z,17.60
2018-11-23T16:43:50.529Z,15.13
2018-11-23T16:46:21.138Z,17.07
2018-11-23T16:48:52.124Z,16.90
2018-11-23T16:51:23.158Z,15.60
2018-11-23T16:53:54.153Z,14.97
2018-11-23T16:56:25.017Z,16.63
2018-11-23T16:58:55.958Z,16.30
2018-11-23T17:01:26.849Z,15.57
2018-11-23T17:03:57.474Z,17.93
2018-11-23T17:06:28.721Z,16.77
2018-11-23T17:08:59.606Z,17.67
2018-11-23T17:11:30.200Z,15.10
2018-11-23T17:14:01.435Z,18.13
2018-11-23T17:16:34.050Z,14.63
2018-11-23T17:19:07.110Z,15.23
2018-11-23T17:21:37.967Z,17.30
2018-11-23T17:24:09.109Z,15.23
2018-11-23T17:26:40.090Z,16.50
2018-11-23T17:29:12.960Z,17.00
2018-11-23T17:32:01.041Z,17.60
2018-11-23T17:34:32.015Z,16.47
2018-11-23T17:37:08.913Z,16.50
2018-11-23T17:39:39.820Z,15.97
2018-11-23T17:42:10.784Z,19.27
2018-11-23T17:44:41.760Z,17.10
2018-11-23T17:47:12.726Z,16.37
2018-11-23T17:49:44.393Z,17.90
2018-11-23T17:52:15.284Z,19.48
2018-11-23T17:54:46.276Z,17.13
2018-11-23T17:57:17.070Z,17.60
2018-11-23T17:59:49.982Z,17.80
2018-11-23T18:02:22.148Z,17.60
2018-11-23T18:04:53.670Z,17.82
2018-11-23T18:07:23.668Z,16.73
2018-11-23T18:09:55.187Z,17.27
2018-11-23T18:12:25.292Z,17.70
2018-11-23T18:14:56.239Z,17.13
2018-11-23T18:17:50.589Z,19.10
2018-11-23T18:20:25.170Z,16.70
2018-11-23T18:23:19.708Z,18.00
2018-11-23T18:28:28.461Z,21.87
2018-11-23T18:30:59.530Z,18.47
2018-11-23T18:33:31.134Z,19.67
2018-11-23T18:36:01.335Z,20.53
2018-11-23T18:38:33.166Z,17.40
2018-11-23T18:41:03.925Z,18.47
2018-11-23T18:43:34.859Z,18.63
2018-11-23T18:46:04.906Z,19.30
2018-11-23T18:48:35.885Z,19.00
2018-11-23T18:51:07.896Z,18.27
2018-11-23T18:53:38.353Z,19.83
2018-11-23T18:56:09.396Z,19.30
2018-11-23T19:01:43.221Z,20.03
2018-11-23T19:04:20.485Z,19.53
2018-11-23T19:07:08.850Z,20.10
2018-11-23T19:09:41.338Z,20.60
2018-11-23T19:12:13.452Z,19.90
2018-11-23T19:14:46.101Z,20.97
2018-11-23T19:17:21.173Z,19.07
2018-11-23T19:19:54.289Z,21.30
2018-11-23T19:22:27.270Z,19.87
2018-11-23T19:25:00.157Z,20.47
2018-11-23T19:27:31.613Z,21.30
2018-11-23T19:33:01.658Z,22.43
2018-11-23T19:35:33.065Z,22.10
2018-11-23T19:38:04.050Z,21.40
2018-11-23T19:40:36.210Z,20.47
2018-11-23T19:43:08.740Z,17.73
2018-11-23T19:45:39.983Z,21.23
2018-11-23T19:48:10.960Z,20.13
2018-11-23T19:50:43.512Z,20.43
2018-11-23T19:53:14.416Z,19.00
2018-11-23T19:55:45.465Z,18.80
2018-11-23T19:58:16.554Z,21.27
2018-11-23T20:00:48.420Z,18.53
2018-11-23T20:03:20.501Z,19.32
2018-11-23T20:05:51.928Z,20.13
2018-11-23T20:08:24.876Z,20.13
2018-11-23T20:10:59.069Z,20.53
2018-11-23T20:13:33.784Z,19.30
2018-11-23T20:18:42.630Z,20.33
2018-11-23T20:21:14.523Z,20.10
2018-11-23T20:23:45.564Z,20.20
2018-11-23T20:26:16.601Z,22.13
2018-11-23T20:28:47.213Z,21.20
2018-11-23T20:31:18.115Z,21.80
2018-11-23T20:33:49.169Z,22.27
2018-11-23T20:36:19.920Z,22.00
2018-11-23T20:38:50.070Z,23.20
2018-11-23T20:41:20.885Z,23.53
2018-11-23T20:43:52.573Z,25.43
2018-11-23T20:46:23.501Z,27.80
2018-11-23T20:48:54.512Z,27.57
2018-11-23T20:51:25.446Z,27.98
2018-11-23T20:53:56.997Z,26.20
2018-11-23T20:56:30.145Z,26.97
2018-11-23T20:59:04.151Z,27.70
2018-11-23T21:01:35.120Z,31.03
2018-11-23T21:04:07.181Z,29.03
2018-11-23T21:06:38.370Z,30.85
2018-11-23T21:09:13.901Z,28.67
2018-11-23T21:11:46.767Z,29.80
2018-11-23T21:14:19.900Z,29.98
2018-11-23T21:16:53.575Z,29.57
2018-11-23T21:19:26.267Z,28.07
2018-11-23T21:21:59.752Z,35.45
2018-11-23T21:24:33.422Z,33.50
2018-11-23T21:27:05.174Z,32.60
2018-11-23T21:29:39.210Z,30.80
2018-11-23T21:32:13.718Z,36.08
2018-11-23T21:34:46.100Z,40.10
2018-11-23T21:37:19.994Z,29.95
2018-11-23T21:39:54.454Z,30.23
2018-11-23T21:42:25.742Z,34.58
2018-11-23T21:44:58.114Z,31.73
2018-11-23T21:47:29.867Z,31.25
2018-11-23T21:50:03.588Z,33.53
2018-11-23T21:52:35.465Z,35.20
2018-11-23T21:55:10.610Z,33.15
2018-11-23T22:01:01.479Z,28.97
2018-11-23T22:03:39.073Z,29.45
2018-11-23T22:06:12.714Z,28.70
2018-11-23T22:08:44.951Z,30.23
2018-11-23T22:11:19.609Z,28.62
2018-11-23T22:13:52.443Z,41.02
2018-11-23T22:16:39.894Z,33.10
2018-11-23T22:19:12.306Z,33.95
2018-11-23T22:21:46.409Z,31.93
2018-11-23T22:24:22.737Z,40.98
2018-11-23T22:26:57.377Z,30.43
2018-11-23T22:29:29.393Z,28.20
2018-11-23T22:32:07.113Z,28.12
2018-11-23T22:34:43.113Z,29.30
2018-11-23T22:37:16.318Z,29.27
2018-11-23T22:39:50.085Z,30.05
2018-11-23T22:42:26.118Z,27.93
2018-11-23T22:48:02.264Z,27.30
2018-11-23T22:50:36.269Z,27.98
2018-11-23T22:53:07.619Z,27.93
2018-11-23T22:55:38.153Z,28.00
2018-11-23T22:58:09.161Z,28.37
2018-11-23T23:00:46.016Z,31.50
2018-11-23T23:03:17.028Z,29.60
2018-11-23T23:05:48.300Z,29.60
2018-11-23T23:08:19.720Z,30.35
2018-11-23T23:10:50.548Z,34.83
2018-11-23T23:13:21.512Z,26.40
2018-11-23T23:15:52.621Z,29.13
2018-11-23T23:18:24.029Z,29.32
2018-11-23T23:20:55.433Z,33.58
2018-11-23T23:26:19.500Z,24.60
2018-11-23T23:28:50.071Z,29.60
2018-11-23T23:31:21.315Z,26.25
2018-11-23T23:33:52.659Z,27.60
2018-11-23T23:36:24.032Z,29.98
2018-11-23T23:38:55.020Z,27.27
2018-11-23T23:41:25.365Z,34.10
2018-11-23T23:43:57.146Z,24.20
2018-11-23T23:46:59.846Z,36.13
2018-11-23T23:49:32.153Z,26.25
2018-11-23T23:52:07.233Z,26.53
2018-11-23T23:54:38.108Z,22.60
2018-11-23T23:57:09.934Z,27.15
